South Natick, Massachusetts
Current Conditions -  °F | °C
As of 1:53 AM on Saturday 25 Oct 2014 (Local Time) from KOWD Reporting Station
Clear Clear  
Wind Chill: 42°   Ceiling: Unl
Heat Index: 42°   Visibility: 10mi
Dew Point: 40°   Wind: 0mph
Humidity: 92%   Direction: NA
Pressure: 29.75"   Gusts: NA
Location:  42.2868°N, 71.3531°W
Report Text: KOWD 250553Z AUTO 00000KT 10SM CLR 06/04 A2975 RMK AO2 SLP074 T00560044 10106 20056 51004
Loading
Personal Weather Stations






























Interactive Weather Map
Tropical Storm Tracking
New forecast layout! Learn more

10-Day Weather Forecast

Advertisements
Track Severe Weather on mobile